createdAt,value
2023-05-03T00:00:40.107Z,81.56
2023-05-03T00:03:12.330Z,82.10
2023-05-03T00:05:38.854Z,82.07
2023-05-03T00:08:05.333Z,82.19
2023-05-03T00:10:31.636Z,83.76
2023-05-03T00:12:58.071Z,83.85
2023-05-03T00:15:35.913Z,83.37
2023-05-03T00:18:04.974Z,83.13
2023-05-03T00:20:31.354Z,82.58
2023-05-03T00:22:58.160Z,81.97
2023-05-03T00:25:27.244Z,81.23
2023-05-03T00:27:53.759Z,80.66
2023-05-03T00:30:20.244Z,80.56
2023-05-03T00:32:49.620Z,80.79
2023-05-03T00:35:16.038Z,81.10
2023-05-03T00:37:49.876Z,81.18
2023-05-03T00:40:16.596Z,80.59
2023-05-03T00:42:43.200Z,80.42
2023-05-03T00:45:09.611Z,79.65
2023-05-03T00:47:36.475Z,78.31
2023-05-03T00:50:03.123Z,78.68
2023-05-03T00:52:30.325Z,78.44
2023-05-03T00:54:57.227Z,79.09
2023-05-03T00:57:24.840Z,79.33
2023-05-03T00:59:52.259Z,79.48
2023-05-03T01:02:18.769Z,80.01
2023-05-03T01:04:45.225Z,80.25
2023-05-03T01:07:21.892Z,80.36
2023-05-03T01:10:02.963Z,80.40
2023-05-03T01:12:48.891Z,80.41
2023-05-03T01:15:20.428Z,80.84
2023-05-03T01:18:02.068Z,79.50
2023-05-03T01:20:29.597Z,79.00
2023-05-03T01:23:04.643Z,79.29
2023-05-03T01:25:31.012Z,79.65
2023-05-03T01:27:57.560Z,80.06
2023-05-03T01:30:26.655Z,80.27
2023-05-03T01:32:56.334Z,80.36
2023-05-03T01:35:28.822Z,79.99
2023-05-03T01:37:56.776Z,79.16
2023-05-03T01:40:24.571Z,77.32
2023-05-03T01:42:51.543Z,76.70
2023-05-03T01:45:17.950Z,76.32
2023-05-03T01:47:44.256Z,76.12
2023-05-03T01:50:10.806Z,75.91
2023-05-03T01:52:37.488Z,75.94
2023-05-03T01:55:03.938Z,75.94
2023-05-03T01:57:30.315Z,75.95
2023-05-03T01:59:56.772Z,76.52
2023-05-03T02:02:23.190Z,78.10
2023-05-03T02:04:49.626Z,78.37
2023-05-03T02:07:16.125Z,78.77
2023-05-03T02:09:43.052Z,79.15
2023-05-03T02:12:09.866Z,79.28
2023-05-03T02:14:36.369Z,79.68
2023-05-03T02:17:02.734Z,80.36
2023-05-03T02:19:29.052Z,80.35
2023-05-03T02:21:55.969Z,80.69
2023-05-03T02:24:23.387Z,81.35
2023-05-03T02:26:49.923Z,80.94
2023-05-03T02:29:16.295Z,80.93
2023-05-03T02:31:45.929Z,81.08
2023-05-03T02:34:12.231Z,81.64
2023-05-03T02:36:38.601Z,81.87
2023-05-03T02:39:04.928Z,81.50
2023-05-03T02:41:32.879Z,81.10
2023-05-03T02:43:59.318Z,82.15
2023-05-03T02:46:26.008Z,81.90
2023-05-03T02:48:52.482Z,81.80
2023-05-03T02:51:18.874Z,80.94
2023-05-03T02:53:45.277Z,81.14
2023-05-03T02:56:11.697Z,81.40
2023-05-03T02:58:38.180Z,81.11
2023-05-03T03:01:05.013Z,80.85
2023-05-03T03:03:31.465Z,81.81
2023-05-03T03:05:57.941Z,82.94
2023-05-03T03:08:24.768Z,83.42
2023-05-03T03:10:57.255Z,83.91
2023-05-03T03:13:23.586Z,84.38
2023-05-03T03:15:49.893Z,84.38
2023-05-03T03:18:18.996Z,83.14
2023-05-03T03:20:46.289Z,83.02
2023-05-03T03:23:15.154Z,82.98
2023-05-03T03:25:43.883Z,82.29
2023-05-03T03:28:10.361Z,83.41
2023-05-03T03:30:37.007Z,84.53
2023-05-03T03:33:17.137Z,84.97
2023-05-03T03:35:44.062Z,84.20
2023-05-03T03:38:10.746Z,82.95
2023-05-03T03:40:38.237Z,82.30
2023-05-03T03:43:05.284Z,81.51
2023-05-03T03:45:31.688Z,79.69
2023-05-03T03:47:58.909Z,79.58
2023-05-03T03:50:26.495Z,79.78
2023-05-03T03:52:52.810Z,80.29
2023-05-03T03:55:22.440Z,80.83
2023-05-03T03:57:49.185Z,81.69
2023-05-03T04:00:16.003Z,82.31
2023-05-03T04:02:48.419Z,82.73
2023-05-03T04:05:17.429Z,82.97
2023-05-03T04:07:44.575Z,83.01
2023-05-03T04:10:11.386Z,83.05
2023-05-03T04:12:39.200Z,83.14
2023-05-03T04:15:06.151Z,83.06
2023-05-03T04:17:33.403Z,82.99
2023-05-03T04:20:01.339Z,82.92
2023-05-03T04:22:29.258Z,82.91
2023-05-03T04:24:55.580Z,82.95
2023-05-03T04:27:22.072Z,82.92
2023-05-03T04:29:58.771Z,83.17
2023-05-03T04:32:25.632Z,83.47
2023-05-03T04:34:54.304Z,83.75
2023-05-03T04:37:21.929Z,83.91
2023-05-03T04:39:49.209Z,83.98
2023-05-03T04:42:18.424Z,83.86
2023-05-03T04:44:45.346Z,83.82
2023-05-03T04:47:20.077Z,83.81
2023-05-03T04:49:46.471Z,83.78
2023-05-03T04:52:13.199Z,83.85
2023-05-03T04:54:49.798Z,83.80
2023-05-03T04:57:16.422Z,83.77
2023-05-03T04:59:43.133Z,83.69
2023-05-03T05:02:10.439Z,83.57
2023-05-03T05:04:42.512Z,83.46
2023-05-03T05:07:29.258Z,83.31
2023-05-03T05:09:58.517Z,83.16
2023-05-03T05:12:25.843Z,83.32
2023-05-03T05:15:01.431Z,83.60
2023-05-03T05:17:27.964Z,85.03
2023-05-03T05:19:54.639Z,84.62
2023-05-03T05:22:21.230Z,83.27
2023-05-03T05:24:52.581Z,82.92
2023-05-03T05:27:19.412Z,82.74
2023-05-03T05:29:45.892Z,82.59
2023-05-03T05:32:12.222Z,82.48
2023-05-03T05:34:45.165Z,82.37
2023-05-03T05:37:16.053Z,82.26
2023-05-03T05:39:42.959Z,82.12
2023-05-03T05:42:10.262Z,82.06
2023-05-03T05:44:37.383Z,81.98
2023-05-03T05:47:04.399Z,81.91
2023-05-03T05:49:32.723Z,81.87
2023-05-03T05:51:59.259Z,81.78
2023-05-03T05:54:27.071Z,81.66
2023-05-03T05:56:55.134Z,81.55
2023-05-03T05:59:21.530Z,81.55
2023-05-03T06:01:47.928Z,81.63
2023-05-03T06:04:16.999Z,81.85
2023-05-03T06:06:43.952Z,82.02
2023-05-03T06:09:23.315Z,82.11
2023-05-03T06:11:53.130Z,82.47
2023-05-03T06:14:19.607Z,82.56
2023-05-03T06:16:47.118Z,82.53
2023-05-03T06:19:13.615Z,82.50
2023-05-03T06:21:40.082Z,82.38
2023-05-03T06:24:09.007Z,82.39
2023-05-03T06:26:35.439Z,82.42
2023-05-03T06:29:02.556Z,82.25
2023-05-03T06:31:29.412Z,82.24
2023-05-03T06:33:58.776Z,82.14
2023-05-03T06:36:25.805Z,81.94
2023-05-03T06:38:52.204Z,81.61
2023-05-03T06:41:18.753Z,81.18
2023-05-03T06:43:45.132Z,80.86
2023-05-03T06:46:14.235Z,81.00
2023-05-03T06:48:40.915Z,81.06
2023-05-03T06:51:07.500Z,80.85
2023-05-03T06:53:37.419Z,80.78
2023-05-03T06:56:03.966Z,80.39
2023-05-03T06:58:30.541Z,80.15
2023-05-03T07:00:56.861Z,80.03
2023-05-03T07:03:23.528Z,79.86
2023-05-03T07:05:50.375Z,79.78
2023-05-03T07:08:16.792Z,79.74
2023-05-03T07:10:43.206Z,79.64
2023-05-03T07:13:09.820Z,79.14
2023-05-03T07:15:36.299Z,79.04
2023-05-03T07:18:02.844Z,78.98
2023-05-03T07:20:29.421Z,78.67
2023-05-03T07:22:55.912Z,78.40
2023-05-03T07:25:22.677Z,78.64
2023-05-03T07:27:49.114Z,78.83
2023-05-03T07:30:15.741Z,78.21
2023-05-03T07:32:42.290Z,78.29
2023-05-03T07:35:09.198Z,77.85
2023-05-03T07:37:35.612Z,77.58
2023-05-03T07:40:03.274Z,77.21
2023-05-03T07:42:29.845Z,76.86
2023-05-03T07:44:56.254Z,76.77
2023-05-03T07:47:26.100Z,76.15
2023-05-03T07:50:06.104Z,74.85
2023-05-03T07:52:36.237Z,74.49
2023-05-03T07:55:02.782Z,73.91
2023-05-03T07:57:29.167Z,73.65
2023-05-03T07:59:55.789Z,73.34
2023-05-03T08:02:22.453Z,72.13
2023-05-03T08:04:58.598Z,70.95
2023-05-03T08:07:25.271Z,70.94
2023-05-03T08:09:53.932Z,71.01
2023-05-03T08:12:20.467Z,70.68
2023-05-03T08:14:46.901Z,70.97
2023-05-03T08:17:15.720Z,71.39
2023-05-03T08:19:42.273Z,71.49
2023-05-03T08:22:08.977Z,71.08
2023-05-03T08:24:35.421Z,70.48
2023-05-03T08:27:02.403Z,69.64
2023-05-03T08:29:37.300Z,68.13
2023-05-03T08:32:04.335Z,68.78
2023-05-03T08:34:31.218Z,67.85
2023-05-03T08:37:00.706Z,67.20
2023-05-03T08:39:27.292Z,67.20
2023-05-03T08:41:56.186Z,67.75
2023-05-03T08:44:23.315Z,68.19
2023-05-03T08:46:49.891Z,67.43
2023-05-03T08:49:16.871Z,66.54
2023-05-03T08:51:55.022Z,66.34
2023-05-03T08:54:21.557Z,66.40
2023-05-03T08:56:48.862Z,66.67
2023-05-03T08:59:15.446Z,65.92
2023-05-03T09:01:42.126Z,65.80
2023-05-03T09:04:09.423Z,66.42
2023-05-03T09:06:36.168Z,66.73
2023-05-03T09:09:06.086Z,66.77
2023-05-03T09:11:33.441Z,66.83
2023-05-03T09:14:16.645Z,66.52
2023-05-03T09:16:44.721Z,65.18
2023-05-03T09:19:12.109Z,64.59
2023-05-03T09:21:39.766Z,65.51
2023-05-03T09:24:13.233Z,66.08
2023-05-03T09:26:39.986Z,66.60
2023-05-03T09:29:07.011Z,66.92
2023-05-03T09:31:33.976Z,67.45
2023-05-03T09:34:00.649Z,67.92
2023-05-03T09:36:47.246Z,68.16
2023-05-03T09:39:15.726Z,68.01
2023-05-03T09:41:42.210Z,68.39
2023-05-03T09:44:08.705Z,68.70
2023-05-03T09:46:55.379Z,68.64
2023-05-03T09:49:21.909Z,68.76
2023-05-03T09:51:48.442Z,68.06
2023-05-03T09:54:14.969Z,67.99
2023-05-03T09:56:42.370Z,67.81
2023-05-03T09:59:09.154Z,67.11
2023-05-03T10:01:35.792Z,66.30
2023-05-03T10:04:03.287Z,66.59
2023-05-03T10:06:37.601Z,66.38
2023-05-03T10:09:15.262Z,65.84
2023-05-03T10:11:48.075Z,65.81
2023-05-03T10:14:14.604Z,65.25
2023-05-03T10:16:43.811Z,65.12
2023-05-03T10:19:22.845Z,64.78
2023-05-03T10:22:08.875Z,63.50
2023-05-03T10:24:36.216Z,64.85
2023-05-03T10:27:06.110Z,64.78
2023-05-03T10:29:36.046Z,65.02
2023-05-03T10:32:25.793Z,64.86
2023-05-03T10:34:56.107Z,64.59
2023-05-03T10:37:25.313Z,64.05
2023-05-03T10:40:30.352Z,63.43
2023-05-03T10:43:01.939Z,62.73
2023-05-03T10:45:28.972Z,62.70
2023-05-03T10:48:11.636Z,63.04
2023-05-03T10:50:38.760Z,63.05
2023-05-03T10:53:05.668Z,62.04
2023-05-03T10:55:32.613Z,62.00
2023-05-03T10:58:00.161Z,62.21
2023-05-03T11:00:44.650Z,63.14
2023-05-03T11:03:29.322Z,63.55
2023-05-03T11:05:56.317Z,63.34
2023-05-03T11:08:23.665Z,62.83
2023-05-03T11:10:55.650Z,60.56
2023-05-03T11:13:22.036Z,61.39
2023-05-03T11:15:52.569Z,60.77
2023-05-03T11:18:19.414Z,61.71
2023-05-03T11:20:46.808Z,61.03
2023-05-03T11:23:13.623Z,61.73
2023-05-03T11:25:39.997Z,61.71
2023-05-03T11:28:06.472Z,62.57
2023-05-03T11:30:34.123Z,62.73
2023-05-03T11:33:01.268Z,62.85
2023-05-03T11:35:30.833Z,62.99
2023-05-03T11:37:57.326Z,63.45
2023-05-03T11:40:23.718Z,64.02
2023-05-03T11:42:51.152Z,64.36
2023-05-03T11:45:20.306Z,64.78
2023-05-03T11:47:48.850Z,65.25
2023-05-03T11:50:15.406Z,65.52
2023-05-03T11:52:42.011Z,65.41
2023-05-03T11:55:08.723Z,65.68
2023-05-03T11:57:35.931Z,65.09
2023-05-03T12:00:11.732Z,64.73
2023-05-03T12:02:38.995Z,64.88
2023-05-03T12:05:06.466Z,64.44
2023-05-03T12:07:34.774Z,62.60
2023-05-03T12:10:17.016Z,61.65
2023-05-03T12:13:00.092Z,62.24
2023-05-03T12:15:30.050Z,61.60
2023-05-03T12:18:00.653Z,60.51
2023-05-03T12:23:08.743Z,61.07
2023-05-03T12:25:39.790Z,61.14
2023-05-03T12:28:20.209Z,60.75
2023-05-03T12:30:54.482Z,60.45
2023-05-03T12:33:23.428Z,59.98
2023-05-03T12:35:53.351Z,59.14
2023-05-03T12:38:23.552Z,59.52
2023-05-03T12:40:51.531Z,60.25
2023-05-03T12:43:18.058Z,59.78
2023-05-03T12:45:52.356Z,60.04
2023-05-03T12:48:25.223Z,59.28
2023-05-03T12:50:52.292Z,59.90
2023-05-03T12:53:19.178Z,59.13
2023-05-03T12:55:51.056Z,59.21
2023-05-03T13:01:22.066Z,59.02
2023-05-03T13:03:44.485Z,59.22
2023-05-03T13:06:18.031Z,58.99
2023-05-03T13:08:50.058Z,58.91
2023-05-03T13:11:17.209Z,59.69
2023-05-03T13:13:43.748Z,60.12
2023-05-03T13:16:10.357Z,59.19
2023-05-03T13:18:36.843Z,59.65
2023-05-03T13:21:03.319Z,59.78
2023-05-03T13:23:30.030Z,59.57
2023-05-03T13:25:56.477Z,59.32
2023-05-03T13:28:22.896Z,58.46
2023-05-03T13:30:49.290Z,57.13
2023-05-03T13:33:15.727Z,57.33
2023-05-03T13:35:42.211Z,58.09
2023-05-03T13:38:08.708Z,58.34
2023-05-03T13:40:34.997Z,57.81
2023-05-03T13:43:01.557Z,56.41
2023-05-03T13:45:28.124Z,54.80
2023-05-03T13:48:13.306Z,56.19
2023-05-03T13:50:41.260Z,55.57
2023-05-03T13:53:07.735Z,56.44
2023-05-03T13:55:34.102Z,57.19
2023-05-03T13:58:00.761Z,57.34
2023-05-03T14:00:27.119Z,55.90
2023-05-03T14:02:56.842Z,56.08
2023-05-03T14:05:23.535Z,55.47
2023-05-03T14:07:49.946Z,57.25
2023-05-03T14:10:16.383Z,56.61
2023-05-03T14:12:43.023Z,56.35
2023-05-03T14:15:10.235Z,56.22
2023-05-03T14:17:39.579Z,53.12
2023-05-03T14:20:07.168Z,53.63
2023-05-03T14:22:34.392Z,55.66
2023-05-03T14:25:01.375Z,55.83
2023-05-03T14:27:27.869Z,55.46
2023-05-03T14:29:55.323Z,55.00
2023-05-03T14:32:23.193Z,54.77
2023-05-03T14:34:49.675Z,54.87
2023-05-03T14:37:16.155Z,52.82
2023-05-03T14:39:42.517Z,54.63
2023-05-03T14:42:12.178Z,54.83
2023-05-03T14:44:38.690Z,54.51
2023-05-03T14:47:05.142Z,54.56
2023-05-03T14:49:31.796Z,54.31
2023-05-03T14:51:58.130Z,54.40
2023-05-03T14:54:27.886Z,54.41
2023-05-03T14:56:54.435Z,54.15
2023-05-03T14:59:21.007Z,54.29
2023-05-03T15:01:47.518Z,54.45
2023-05-03T15:04:14.148Z,54.56
2023-05-03T15:06:40.515Z,54.82
2023-05-03T15:09:06.969Z,55.17
2023-05-03T15:11:33.884Z,55.21
2023-05-03T15:14:00.376Z,55.70
2023-05-03T15:16:26.902Z,56.16
2023-05-03T15:18:53.423Z,56.45
2023-05-03T15:21:19.899Z,56.67
2023-05-03T15:23:46.595Z,56.76
2023-05-03T15:26:18.602Z,56.88
2023-05-03T15:28:45.372Z,56.92
2023-05-03T15:31:12.474Z,56.88
2023-05-03T15:33:39.758Z,57.05
2023-05-03T15:36:15.248Z,56.98
2023-05-03T15:38:41.723Z,56.96
2023-05-03T15:41:08.317Z,57.08
2023-05-03T15:43:34.683Z,57.08
2023-05-03T15:46:01.520Z,57.61
2023-05-03T15:48:28.092Z,57.31
2023-05-03T15:50:54.535Z,57.45
2023-05-03T15:53:21.021Z,57.39
2023-05-03T15:55:47.503Z,57.28
2023-05-03T15:58:16.434Z,57.48
2023-05-03T16:00:45.352Z,57.70
2023-05-03T16:03:17.821Z,58.59
2023-05-03T16:05:44.250Z,59.20
2023-05-03T16:08:10.796Z,57.90
2023-05-03T16:10:42.087Z,57.02
2023-05-03T16:13:08.492Z,56.82
2023-05-03T16:15:34.993Z,56.19
2023-05-03T16:18:03.380Z,55.98
2023-05-03T16:20:30.057Z,56.17
2023-05-03T16:23:08.305Z,57.62
2023-05-03T16:25:42.650Z,58.06
2023-05-03T16:28:15.018Z,58.56
2023-05-03T16:30:41.725Z,58.56
2023-05-03T16:33:08.340Z,59.58
2023-05-03T16:35:35.008Z,59.64
2023-05-03T16:38:01.401Z,60.35
2023-05-03T16:40:27.851Z,60.37
2023-05-03T16:42:54.246Z,60.92
2023-05-03T16:45:20.662Z,60.98
2023-05-03T16:47:47.187Z,61.11
2023-05-03T16:50:13.904Z,60.97
2023-05-03T16:52:41.343Z,60.96
2023-05-03T16:55:08.994Z,60.68
2023-05-03T16:57:36.147Z,61.08
2023-05-03T17:00:04.913Z,61.34
2023-05-03T17:02:31.784Z,61.57
2023-05-03T17:04:58.608Z,61.59
2023-05-03T17:07:25.184Z,61.86
2023-05-03T17:09:51.587Z,61.90
2023-05-03T17:12:18.198Z,62.11
2023-05-03T17:14:44.973Z,62.37
2023-05-03T17:17:11.349Z,62.78
2023-05-03T17:19:38.010Z,62.97
2023-05-03T17:22:04.680Z,62.89
2023-05-03T17:24:31.073Z,62.27
2023-05-03T17:26:57.838Z,62.31
2023-05-03T17:29:24.770Z,62.64
2023-05-03T17:31:52.055Z,62.55
2023-05-03T17:34:18.723Z,62.29
2023-05-03T17:36:45.534Z,62.33
2023-05-03T17:39:11.878Z,62.18
2023-05-03T17:41:38.567Z,61.38
2023-05-03T17:44:05.084Z,62.16
2023-05-03T17:46:33.093Z,61.81
2023-05-03T17:49:01.522Z,62.10
2023-05-03T17:51:30.051Z,62.62
2023-05-03T17:53:56.365Z,62.45
2023-05-03T17:56:22.990Z,62.45
2023-05-03T17:58:49.466Z,62.23
2023-05-03T18:01:16.173Z,62.02
2023-05-03T18:03:42.867Z,60.96
2023-05-03T18:06:10.559Z,60.18
2023-05-03T18:08:37.022Z,59.76
2023-05-03T18:11:03.745Z,59.85
2023-05-03T18:13:30.627Z,60.05
2023-05-03T18:15:57.375Z,60.23
2023-05-03T18:18:23.945Z,60.41
2023-05-03T18:21:00.319Z,60.60
2023-05-03T18:23:27.106Z,61.18
2023-05-03T18:25:53.594Z,61.93
2023-05-03T18:28:20.179Z,62.16
2023-05-03T18:30:47.071Z,62.27
2023-05-03T18:33:13.654Z,62.73
2023-05-03T18:35:40.203Z,63.53
2023-05-03T18:38:06.785Z,64.03
2023-05-03T18:40:33.134Z,64.73
2023-05-03T18:42:59.515Z,66.48
2023-05-03T18:45:26.338Z,67.11
2023-05-03T18:47:52.712Z,66.85
2023-05-03T18:50:19.125Z,66.75
2023-05-03T18:52:46.448Z,66.91
2023-05-03T18:55:12.836Z,67.04
2023-05-03T18:57:39.234Z,67.33
2023-05-03T19:00:06.851Z,67.84
2023-05-03T19:02:33.263Z,67.59
2023-05-03T19:04:59.922Z,67.49
2023-05-03T19:07:30.196Z,67.55
2023-05-03T19:09:56.847Z,67.68
2023-05-03T19:12:23.512Z,68.01
2023-05-03T19:14:50.012Z,67.96
2023-05-03T19:17:16.503Z,67.96
2023-05-03T19:19:42.893Z,67.44
2023-05-03T19:22:10.453Z,66.24
2023-05-03T19:24:37.030Z,65.83
2023-05-03T19:27:03.706Z,65.62
2023-05-03T19:29:30.396Z,65.23
2023-05-03T19:31:56.963Z,64.26
2023-05-03T19:34:24.052Z,64.02
2023-05-03T19:36:50.595Z,63.75
2023-05-03T19:39:17.093Z,64.36
2023-05-03T19:41:45.971Z,65.57
2023-05-03T19:44:12.847Z,67.00
2023-05-03T19:46:39.371Z,67.34
2023-05-03T19:49:06.487Z,68.64
2023-05-03T19:51:32.939Z,68.02
2023-05-03T19:54:02.504Z,68.77
2023-05-03T19:56:28.981Z,68.92
2023-05-03T19:58:55.442Z,68.04
2023-05-03T20:01:22.084Z,68.93
2023-05-03T20:03:48.603Z,70.04
2023-05-03T20:06:15.150Z,71.56
2023-05-03T20:08:41.486Z,71.61
2023-05-03T20:11:08.206Z,72.05
2023-05-03T20:13:34.752Z,71.36
2023-05-03T20:16:01.682Z,72.24
2023-05-03T20:18:28.680Z,69.81
2023-05-03T20:20:56.993Z,68.93
2023-05-03T20:23:24.283Z,70.36
2023-05-03T20:25:51.463Z,69.79
2023-05-03T20:28:19.361Z,71.04
2023-05-03T20:30:48.987Z,70.26
2023-05-03T20:33:15.619Z,71.46
2023-05-03T20:35:42.742Z,71.42
2023-05-03T20:38:09.233Z,70.97
2023-05-03T20:40:35.737Z,70.67
2023-05-03T20:43:05.644Z,73.44
2023-05-03T20:45:32.077Z,73.79
2023-05-03T20:47:58.761Z,73.56
2023-05-03T20:50:25.523Z,73.56
2023-05-03T20:52:51.929Z,72.81
2023-05-03T20:55:18.375Z,72.62
2023-05-03T20:57:45.206Z,72.80
2023-05-03T21:00:11.806Z,73.63
2023-05-03T21:02:38.215Z,73.82
2023-05-03T21:05:06.037Z,73.20
2023-05-03T21:07:32.509Z,72.87
2023-05-03T21:09:59.025Z,71.96
2023-05-03T21:12:25.432Z,72.08
2023-05-03T21:14:52.016Z,72.27
2023-05-03T21:17:18.517Z,72.75
2023-05-03T21:19:45.017Z,73.46
2023-05-03T21:22:11.345Z,75.05
2023-05-03T21:24:40.101Z,75.53
2023-05-03T21:27:06.635Z,75.56
2023-05-03T21:29:32.975Z,74.90
2023-05-03T21:31:59.670Z,74.99
2023-05-03T21:34:26.380Z,75.23
2023-05-03T21:36:52.747Z,75.72
2023-05-03T21:39:19.079Z,74.89
2023-05-03T21:41:45.984Z,73.97
2023-05-03T21:44:12.428Z,73.21
2023-05-03T21:46:41.988Z,73.16
2023-05-03T21:49:08.390Z,71.78
2023-05-03T21:51:34.757Z,71.04
2023-05-03T21:54:01.079Z,70.90
2023-05-03T21:56:27.417Z,71.63
2023-05-03T21:58:53.780Z,71.96
2023-05-03T22:01:20.326Z,72.90
2023-05-03T22:03:47.641Z,72.23
2023-05-03T22:06:14.265Z,72.28
2023-05-03T22:08:40.616Z,73.81
2023-05-03T22:11:06.929Z,75.42
2023-05-03T22:13:33.424Z,75.51
2023-05-03T22:16:04.296Z,75.88
2023-05-03T22:18:30.920Z,75.94
2023-05-03T22:20:57.250Z,75.65
2023-05-03T22:23:23.581Z,75.71
2023-05-03T22:25:49.942Z,75.80
2023-05-03T22:28:16.252Z,76.17
2023-05-03T22:30:42.620Z,76.84
2023-05-03T22:33:09.090Z,76.78
2023-05-03T22:35:35.500Z,75.60
2023-05-03T22:38:01.801Z,74.19
2023-05-03T22:40:28.126Z,73.30
2023-05-03T22:42:57.619Z,72.74
2023-05-03T22:45:23.906Z,72.31
2023-05-03T22:47:50.285Z,73.22
2023-05-03T22:50:16.697Z,73.25
2023-05-03T22:52:43.026Z,71.78
2023-05-03T22:55:09.551Z,71.68
2023-05-03T22:57:35.859Z,71.65
2023-05-03T23:00:02.587Z,72.26
2023-05-03T23:02:29.156Z,73.45
2023-05-03T23:04:55.911Z,73.54
2023-05-03T23:07:22.277Z,74.35
2023-05-03T23:09:48.619Z,74.62
2023-05-03T23:12:15.103Z,75.04
2023-05-03T23:14:41.408Z,75.27
2023-05-03T23:17:07.706Z,75.06
2023-05-03T23:19:34.074Z,75.27
2023-05-03T23:22:00.526Z,75.57
2023-05-03T23:24:26.929Z,76.56
2023-05-03T23:26:53.227Z,76.65
2023-05-03T23:29:19.864Z,76.20
2023-05-03T23:31:46.853Z,76.44
2023-05-03T23:34:13.813Z,77.00
2023-05-03T23:36:40.147Z,77.41
2023-05-03T23:39:06.462Z,77.14
2023-05-03T23:41:32.824Z,77.30
2023-05-03T23:43:59.324Z,77.38
2023-05-03T23:46:25.652Z,77.27
2023-05-03T23:48:51.932Z,77.29
2023-05-03T23:51:18.240Z,77.05
2023-05-03T23:53:44.690Z,76.52
2023-05-03T23:56:11.081Z,76.78
2023-05-03T23:58:37.359Z,76.97
